Lehigh, Florida
Current Conditions -  °F | °C
As of 10:53 PM on Thursday 27 Nov 2014 (Local Time) from KRSW Reporting Station
Clear Clear  
Wind Chill: 54°   Ceiling: Unl
Heat Index: 54°   Visibility: 10mi
Dew Point: 42°   Wind: 8mph
Humidity: 64%   Direction: 350°N
Pressure: 30.26"   Gusts: NA
Location:  26.6076°N, 81.705°W
Report Text: KRSW 280353Z 35007KT 10SM CLR 12/06 A3026 RMK AO2 SLP243 T01220056
Loading
Personal Weather Stations






























Interactive Weather Map New forecast layout! Learn more

10-Day Weather Forecast

Advertisements
Track Severe Weather on mobile